createdAt,value
2018-08-24T00:01:20.809Z,60.00
2018-08-24T00:03:55.239Z,59.80
2018-08-24T00:06:29.492Z,59.80
2018-08-24T00:09:06.632Z,59.80
2018-08-24T00:11:41.073Z,59.80
2018-08-24T00:14:15.444Z,59.80
2018-08-24T00:16:49.781Z,59.70
2018-08-24T00:19:24.144Z,59.70
2018-08-24T00:21:58.378Z,59.60
2018-08-24T00:24:32.655Z,59.70
2018-08-24T00:27:07.196Z,59.60
2018-08-24T00:29:41.572Z,59.80
2018-08-24T00:32:15.928Z,59.80
2018-08-24T00:34:50.300Z,59.80
2018-08-24T00:37:24.549Z,59.80
2018-08-24T00:39:58.915Z,59.70
2018-08-24T00:42:33.290Z,59.70
2018-08-24T00:45:07.607Z,59.80
2018-08-24T00:47:42.006Z,59.80
2018-08-24T00:50:16.413Z,59.80
2018-08-24T00:52:50.616Z,59.80
2018-08-24T00:55:25.052Z,59.90
2018-08-24T00:57:59.416Z,59.90
2018-08-24T01:00:39.081Z,59.90
2018-08-24T01:03:14.316Z,59.90
2018-08-24T01:05:48.672Z,59.80
2018-08-24T01:08:22.910Z,60.50
2018-08-24T01:10:57.232Z,59.80
2018-08-24T01:13:31.669Z,59.80
2018-08-24T01:16:05.994Z,59.90
2018-08-24T01:18:45.628Z,59.90
2018-08-24T01:21:20.003Z,59.80
2018-08-24T01:23:54.452Z,59.80
2018-08-24T01:26:28.663Z,59.80
2018-08-24T01:29:03.055Z,59.80
2018-08-24T01:31:37.442Z,59.90
2018-08-24T01:34:11.764Z,59.90
2018-08-24T01:36:45.984Z,59.90
2018-08-24T01:39:20.200Z,60.00
2018-08-24T01:41:54.544Z,60.00
2018-08-24T01:44:29.023Z,60.00
2018-08-24T01:47:03.279Z,60.00
2018-08-24T01:49:37.527Z,60.00
2018-08-24T01:52:11.928Z,60.00
2018-08-24T01:54:46.284Z,60.00
2018-08-24T01:57:20.567Z,60.10
2018-08-24T01:59:55.096Z,60.10
2018-08-24T02:02:29.452Z,60.10
2018-08-24T02:05:03.842Z,60.10
2018-08-24T02:07:38.412Z,60.10
2018-08-24T02:10:18.101Z,60.10
2018-08-24T02:12:57.729Z,60.20
2018-08-24T02:15:31.994Z,59.60
2018-08-24T02:18:11.942Z,60.20
2018-08-24T02:20:51.736Z,60.30
2018-08-24T02:23:26.111Z,60.30
2018-08-24T02:26:00.516Z,60.40
2018-08-24T02:28:34.875Z,60.90
2018-08-24T02:31:09.251Z,60.30
2018-08-24T02:33:43.584Z,60.40
2018-08-24T02:36:18.033Z,60.50
2018-08-24T02:38:52.220Z,60.60
2018-08-24T02:41:26.575Z,60.60
2018-08-24T02:44:00.898Z,60.70
2018-08-24T02:46:35.297Z,60.70
2018-08-24T02:49:09.653Z,60.80
2018-08-24T02:51:43.949Z,60.70
2018-08-24T02:54:18.280Z,60.90
2018-08-24T02:56:52.601Z,60.80
2018-08-24T02:59:26.896Z,60.80
2018-08-24T03:02:01.217Z,60.90
2018-08-24T03:04:35.627Z,60.80
2018-08-24T03:07:09.941Z,61.00
2018-08-24T03:09:44.180Z,60.90
2018-08-24T03:12:18.586Z,60.90
2018-08-24T03:14:52.937Z,61.00
2018-08-24T03:17:32.573Z,61.00
2018-08-24T03:20:07.052Z,61.00
2018-08-24T03:22:41.335Z,61.00
2018-08-24T03:25:15.740Z,61.00
2018-08-24T03:27:50.036Z,61.00
2018-08-24T03:30:24.405Z,61.00
2018-08-24T03:32:58.822Z,61.00
2018-08-24T03:35:33.081Z,61.00
2018-08-24T03:38:07.315Z,61.10
2018-08-24T03:40:41.512Z,61.00
2018-08-24T03:43:16.237Z,59.70
2018-08-24T03:45:50.488Z,60.20
2018-08-24T03:48:24.717Z,61.00
2018-08-24T03:50:58.977Z,60.90
2018-08-24T03:53:33.289Z,60.90
2018-08-24T03:56:07.560Z,60.90
2018-08-24T03:58:41.775Z,60.80
2018-08-24T04:01:16.008Z,60.70
2018-08-24T04:03:50.359Z,60.70
2018-08-24T04:06:24.574Z,60.70
2018-08-24T04:08:58.962Z,60.60
2018-08-24T04:11:33.213Z,61.10
2018-08-24T04:14:08.019Z,60.70
2018-08-24T04:16:47.954Z,60.70
2018-08-24T04:19:29.122Z,60.90
2018-08-24T04:22:03.432Z,60.60
2018-08-24T04:24:40.444Z,60.80
2018-08-24T04:27:14.673Z,60.80
2018-08-24T04:29:48.972Z,60.80
2018-08-24T04:32:23.323Z,60.80
2018-08-24T04:34:57.547Z,60.80
2018-08-24T04:37:31.784Z,60.90
2018-08-24T04:40:06.164Z,60.90
2018-08-24T04:42:40.573Z,60.90
2018-08-24T04:45:14.916Z,60.90
2018-08-24T04:47:49.260Z,60.80
2018-08-24T04:50:23.551Z,60.10
2018-08-24T04:52:57.807Z,60.70
2018-08-24T04:55:32.141Z,59.00
2018-08-24T04:58:06.526Z,66.50
2018-08-24T05:00:40.897Z,72.00
2018-08-24T05:03:15.284Z,75.10
2018-08-24T05:05:49.619Z,77.40
2018-08-24T05:08:23.738Z,79.30
2018-08-24T05:10:58.127Z,82.80
2018-08-24T05:13:32.497Z,86.00
2018-08-24T05:16:06.888Z,85.60
2018-08-24T05:18:41.132Z,87.30
2018-08-24T05:21:15.411Z,88.90
2018-08-24T05:23:49.756Z,88.40
2018-08-24T05:26:23.977Z,87.30
2018-08-24T05:28:58.273Z,89.90
2018-08-24T05:31:32.647Z,90.00
2018-08-24T05:34:06.986Z,89.70
2018-08-24T05:36:41.294Z,90.20
2018-08-24T05:39:15.547Z,90.40
2018-08-24T05:41:49.828Z,90.40
2018-08-24T05:44:24.068Z,89.70
2018-08-24T05:46:58.376Z,89.70
2018-08-24T05:49:32.729Z,89.30
2018-08-24T05:52:07.354Z,90.00
2018-08-24T05:54:41.710Z,89.30
2018-08-24T05:57:15.971Z,90.40
2018-08-24T05:59:50.284Z,90.70
2018-08-24T06:02:24.885Z,90.20
2018-08-24T06:04:59.238Z,85.80
2018-08-24T06:07:33.599Z,87.90
2018-08-24T06:10:07.914Z,89.40
2018-08-24T06:12:42.117Z,91.10
2018-08-24T06:15:16.684Z,91.40
2018-08-24T06:17:53.165Z,91.40
2018-08-24T06:20:27.555Z,91.30
2018-08-24T06:23:01.889Z,91.30
2018-08-24T06:25:36.129Z,91.30
2018-08-24T06:28:10.499Z,91.00
2018-08-24T06:30:44.941Z,91.90
2018-08-24T06:33:22.862Z,92.30
2018-08-24T06:35:57.060Z,91.50
2018-08-24T06:38:31.479Z,91.40
2018-08-24T06:41:07.253Z,91.20
2018-08-24T06:43:41.658Z,91.00
2018-08-24T06:46:16.082Z,91.00
2018-08-24T06:48:50.507Z,91.80
2018-08-24T06:51:24.796Z,91.60
2018-08-24T06:53:59.172Z,90.80
2018-08-24T06:56:33.546Z,90.70
2018-08-24T06:59:07.989Z,90.80
2018-08-24T07:01:42.384Z,90.30
2018-08-24T07:04:16.628Z,90.20
2018-08-24T07:06:50.956Z,89.30
2018-08-24T07:09:25.212Z,90.30
2018-08-24T07:11:59.501Z,90.90
2018-08-24T07:14:33.865Z,90.40
2018-08-24T07:17:08.203Z,90.60
2018-08-24T07:19:42.492Z,90.20
2018-08-24T07:22:16.947Z,90.40
2018-08-24T07:24:51.174Z,91.80
2018-08-24T07:27:25.538Z,91.10
2018-08-24T07:29:59.828Z,90.80
2018-08-24T07:32:34.290Z,91.20
2018-08-24T07:35:08.528Z,90.30
2018-08-24T07:37:42.964Z,88.70
2018-08-24T07:40:17.229Z,84.00
2018-08-24T07:42:51.894Z,82.10
2018-08-24T07:45:27.253Z,78.00
2018-08-24T07:48:01.540Z,77.20
2018-08-24T07:50:35.843Z,76.40
2018-08-24T07:53:10.260Z,74.80
2018-08-24T07:55:44.605Z,75.00
2018-08-24T07:58:18.974Z,72.30
2018-08-24T08:00:53.313Z,73.50
2018-08-24T08:03:27.717Z,71.30
2018-08-24T08:06:01.989Z,72.90
2018-08-24T08:08:36.240Z,70.80
2018-08-24T08:11:10.543Z,69.30
2018-08-24T08:13:44.941Z,70.40
2018-08-24T08:16:19.260Z,69.60
2018-08-24T08:18:53.623Z,68.70
2018-08-24T08:21:27.888Z,68.40
2018-08-24T08:24:02.198Z,67.00
2018-08-24T08:26:36.447Z,66.60
2018-08-24T08:29:14.908Z,65.80
2018-08-24T08:31:49.598Z,65.80
2018-08-24T08:34:23.856Z,65.40
2018-08-24T08:36:58.304Z,68.20
2018-08-24T08:39:32.514Z,70.70
2018-08-24T08:42:06.934Z,69.70
2018-08-24T08:44:41.210Z,68.90
2018-08-24T08:47:15.700Z,67.90
2018-08-24T08:49:49.984Z,66.60
2018-08-24T08:52:24.348Z,66.20
2018-08-24T08:54:58.722Z,63.70
2018-08-24T08:57:33.201Z,64.10
2018-08-24T09:00:07.483Z,62.80
2018-08-24T09:02:41.829Z,61.60
2018-08-24T09:05:16.126Z,59.50
2018-08-24T09:07:50.468Z,61.10
2018-08-24T09:10:24.746Z,63.20
2018-08-24T09:12:59.270Z,60.70
2018-08-24T09:15:33.676Z,63.70
2018-08-24T09:18:13.479Z,62.00
2018-08-24T09:20:53.194Z,62.60
2018-08-24T09:23:32.933Z,60.20
2018-08-24T09:26:12.653Z,59.70
2018-08-24T09:28:47.522Z,58.20
2018-08-24T09:31:26.172Z,57.40
2018-08-24T09:34:00.676Z,56.20
2018-08-24T09:36:34.904Z,57.70
2018-08-24T09:39:09.255Z,56.80
2018-08-24T09:41:43.493Z,56.70
2018-08-24T09:44:18.009Z,57.00
2018-08-24T09:46:57.766Z,54.20
2018-08-24T09:49:37.005Z,55.10
2018-08-24T09:52:16.562Z,53.40
2018-08-24T09:54:50.987Z,53.70
2018-08-24T09:57:25.383Z,54.00
2018-08-24T09:59:59.799Z,51.90
2018-08-24T10:02:39.675Z,51.70
2018-08-24T10:09:38.180Z,49.20
2018-08-24T10:12:12.573Z,50.50
2018-08-24T10:14:46.888Z,48.70
2018-08-24T10:17:25.646Z,49.30
2018-08-24T10:19:59.864Z,47.50
2018-08-24T10:22:34.296Z,49.80
2018-08-24T10:25:08.541Z,46.40
2018-08-24T10:27:42.803Z,51.00
2018-08-24T10:30:17.072Z,48.70
2018-08-24T10:32:51.403Z,48.90
2018-08-24T10:35:25.771Z,43.80
2018-08-24T10:38:00.121Z,45.20
2018-08-24T10:40:34.404Z,45.90
2018-08-24T10:43:08.687Z,48.00
2018-08-24T10:45:42.916Z,45.80
2018-08-24T10:48:17.149Z,45.80
2018-08-24T10:50:51.556Z,44.00
2018-08-24T10:53:26.037Z,42.80
2018-08-24T10:56:00.391Z,45.40
2018-08-24T10:58:35.632Z,43.40
2018-08-24T11:01:09.909Z,42.40
2018-08-24T11:03:44.479Z,41.30
2018-08-24T11:06:18.883Z,40.80
2018-08-24T11:08:53.164Z,43.00
2018-08-24T11:11:27.390Z,42.70
2018-08-24T11:14:01.601Z,41.80
2018-08-24T11:16:35.964Z,42.40
2018-08-24T11:19:10.193Z,44.90
2018-08-24T11:21:44.474Z,44.20
2018-08-24T11:24:18.812Z,43.90
2018-08-24T11:26:53.438Z,43.60
2018-08-24T11:29:27.695Z,42.90
2018-08-24T11:32:01.944Z,43.30
2018-08-24T11:34:36.425Z,43.50
2018-08-24T11:37:10.651Z,43.30
2018-08-24T11:39:44.935Z,43.00
2018-08-24T11:42:19.327Z,41.20
2018-08-24T11:44:53.741Z,41.60
2018-08-24T11:47:28.096Z,40.00
2018-08-24T11:50:02.543Z,41.60
2018-08-24T11:52:36.780Z,41.50
2018-08-24T11:55:11.240Z,42.20
2018-08-24T11:57:45.560Z,40.60
2018-08-24T12:00:24.121Z,42.40
2018-08-24T12:02:58.637Z,39.00
2018-08-24T12:05:32.975Z,41.90
2018-08-24T12:08:07.569Z,40.60
2018-08-24T12:10:41.718Z,41.00
2018-08-24T12:13:16.074Z,42.30
2018-08-24T12:15:50.512Z,42.20
2018-08-24T12:18:24.973Z,43.80
2018-08-24T12:20:59.742Z,40.70
2018-08-24T12:23:34.012Z,42.10
2018-08-24T12:26:08.309Z,42.80
2018-08-24T12:28:42.638Z,40.30
2018-08-24T12:31:16.996Z,42.90
2018-08-24T12:33:51.340Z,43.50
2018-08-24T12:36:25.610Z,44.60
2018-08-24T12:39:00.286Z,41.50
2018-08-24T12:41:34.800Z,43.80
2018-08-24T12:44:09.204Z,42.70
2018-08-24T12:46:43.578Z,43.90
2018-08-24T12:49:18.020Z,41.20
2018-08-24T12:51:52.249Z,37.50
2018-08-24T12:54:26.537Z,41.00
2018-08-24T12:57:00.924Z,41.20
2018-08-24T12:59:35.318Z,41.60
2018-08-24T13:02:09.675Z,38.20
2018-08-24T13:04:43.921Z,41.90
2018-08-24T13:07:18.308Z,38.70
2018-08-24T13:09:52.702Z,38.20
2018-08-24T13:12:26.993Z,38.60
2018-08-24T13:15:01.237Z,40.90
2018-08-24T13:17:35.772Z,38.80
2018-08-24T13:20:09.987Z,39.20
2018-08-24T13:22:44.205Z,38.60
2018-08-24T13:25:18.485Z,41.10
2018-08-24T13:27:52.858Z,42.50
2018-08-24T13:30:27.237Z,39.40
2018-08-24T13:33:01.756Z,42.30
2018-08-24T13:35:36.410Z,40.60
2018-08-24T13:38:10.832Z,40.80
2018-08-24T13:40:45.338Z,40.80
2018-08-24T13:43:19.603Z,42.70
2018-08-24T13:45:54.046Z,39.50
2018-08-24T13:48:28.508Z,39.90
2018-08-24T13:51:02.876Z,41.60
2018-08-24T13:53:37.329Z,41.00
2018-08-24T13:56:11.712Z,40.70
2018-08-24T13:58:46.112Z,42.50
2018-08-24T14:01:20.456Z,40.50
2018-08-24T14:03:54.729Z,41.80
2018-08-24T14:06:29.078Z,41.30
2018-08-24T14:09:04.033Z,40.60
2018-08-24T14:11:38.349Z,39.50
2018-08-24T14:14:12.747Z,38.50
2018-08-24T14:16:47.070Z,40.40
2018-08-24T14:19:21.280Z,41.20
2018-08-24T14:21:55.740Z,43.00
2018-08-24T14:24:29.956Z,42.20
2018-08-24T14:27:04.368Z,43.10
2018-08-24T14:29:38.735Z,42.00
2018-08-24T14:32:12.976Z,41.20
2018-08-24T14:34:47.283Z,42.70
2018-08-24T14:37:21.634Z,41.50
2018-08-24T14:39:56.089Z,41.50
2018-08-24T14:42:30.482Z,42.10
2018-08-24T14:45:05.030Z,44.20
2018-08-24T14:47:39.238Z,40.80
2018-08-24T14:50:13.500Z,40.70
2018-08-24T14:52:48.008Z,42.50
2018-08-24T14:55:23.397Z,42.40
2018-08-24T14:57:57.747Z,41.30
2018-08-24T15:00:32.048Z,43.60
2018-08-24T15:03:06.264Z,43.30
2018-08-24T15:05:40.596Z,40.40
2018-08-24T15:08:14.921Z,42.20
2018-08-24T15:10:49.304Z,42.10
2018-08-24T15:13:23.799Z,42.00
2018-08-24T15:15:58.053Z,42.40
2018-08-24T15:18:32.404Z,41.90
2018-08-24T15:21:06.815Z,43.10
2018-08-24T15:23:41.044Z,42.40
2018-08-24T15:26:15.308Z,44.60
2018-08-24T15:28:49.628Z,43.60
2018-08-24T15:31:24.026Z,44.90
2018-08-24T15:33:58.319Z,43.50
2018-08-24T15:36:32.568Z,40.90
2018-08-24T15:39:09.038Z,39.60
2018-08-24T15:41:43.561Z,39.60
2018-08-24T15:44:17.880Z,40.70
2018-08-24T15:46:52.118Z,42.70
2018-08-24T15:49:26.465Z,42.20
2018-08-24T15:52:00.933Z,42.40
2018-08-24T15:54:35.269Z,43.70
2018-08-24T15:57:09.536Z,44.20
2018-08-24T15:59:43.776Z,41.60
2018-08-24T16:02:18.040Z,42.20
2018-08-24T16:04:52.373Z,44.60
2018-08-24T16:07:26.629Z,41.20
2018-08-24T16:10:00.927Z,42.60
2018-08-24T16:12:35.496Z,43.60
2018-08-24T16:15:09.779Z,45.00
2018-08-24T16:17:48.431Z,44.50
2018-08-24T16:20:23.584Z,44.00
2018-08-24T16:22:58.043Z,43.90
2018-08-24T16:25:32.348Z,44.70
2018-08-24T16:28:06.748Z,44.90
2018-08-24T16:30:41.130Z,44.70
2018-08-24T16:33:15.524Z,45.10
2018-08-24T16:35:49.828Z,45.50
2018-08-24T16:38:24.145Z,45.10
2018-08-24T16:40:58.553Z,44.80
2018-08-24T16:43:33.024Z,44.60
2018-08-24T16:46:07.344Z,45.00
2018-08-24T16:48:41.675Z,44.80
2018-08-24T16:51:15.940Z,45.90
2018-08-24T16:53:50.168Z,45.40
2018-08-24T16:56:24.574Z,48.50
2018-08-24T16:58:58.777Z,43.90
2018-08-24T17:01:33.152Z,46.20
2018-08-24T17:04:07.473Z,43.80
2018-08-24T17:06:41.743Z,44.70
2018-08-24T17:09:16.124Z,43.70
2018-08-24T17:11:50.432Z,43.90
2018-08-24T17:14:24.926Z,43.40
2018-08-24T17:16:59.348Z,45.60
2018-08-24T17:19:34.097Z,41.40
2018-08-24T17:22:08.435Z,42.00
2018-08-24T17:24:42.736Z,40.60
2018-08-24T17:27:17.105Z,44.00
2018-08-24T17:29:51.476Z,43.30
2018-08-24T17:32:25.751Z,42.90
2018-08-24T17:35:00.004Z,44.20
2018-08-24T17:37:34.294Z,43.40
2018-08-24T17:40:08.662Z,43.90
2018-08-24T17:42:42.988Z,44.30
2018-08-24T17:45:17.283Z,43.70
2018-08-24T17:47:51.754Z,43.00
2018-08-24T17:50:26.261Z,45.40
2018-08-24T17:53:00.648Z,43.30
2018-08-24T17:55:34.908Z,43.40
2018-08-24T17:58:09.496Z,44.90
2018-08-24T18:00:43.889Z,43.30
2018-08-24T18:03:18.310Z,44.80
2018-08-24T18:05:52.548Z,44.50
2018-08-24T18:08:26.917Z,44.30
2018-08-24T18:11:01.279Z,43.60
2018-08-24T18:13:35.534Z,43.90
2018-08-24T18:16:09.908Z,44.60
2018-08-24T18:18:44.340Z,46.70
2018-08-24T18:21:18.676Z,45.40
2018-08-24T18:23:53.039Z,45.80
2018-08-24T18:26:27.413Z,45.70
2018-08-24T18:29:01.936Z,47.40
2018-08-24T18:31:36.305Z,47.50
2018-08-24T18:34:10.576Z,49.40
2018-08-24T18:36:44.979Z,48.50
2018-08-24T18:39:19.233Z,47.20
2018-08-24T18:41:53.505Z,46.50
2018-08-24T18:44:27.801Z,46.10
2018-08-24T18:47:02.157Z,45.80
2018-08-24T18:49:36.464Z,45.70
2018-08-24T18:52:10.747Z,45.50
2018-08-24T18:54:45.067Z,43.70
2018-08-24T18:57:19.383Z,45.30
2018-08-24T18:59:53.781Z,45.30
2018-08-24T19:02:28.154Z,45.30
2018-08-24T19:05:02.540Z,45.10
2018-08-24T19:07:36.857Z,45.00
2018-08-24T19:10:11.086Z,45.00
2018-08-24T19:12:45.537Z,44.90
2018-08-24T19:15:19.932Z,45.00
2018-08-24T19:17:59.802Z,44.90
2018-08-24T19:20:39.619Z,45.00
2018-08-24T19:23:13.877Z,45.00
2018-08-24T19:25:48.258Z,45.00
2018-08-24T19:28:27.941Z,45.00
2018-08-24T19:31:02.249Z,44.60
2018-08-24T19:33:36.603Z,45.20
2018-08-24T19:36:11.055Z,45.20
2018-08-24T19:38:45.368Z,45.20
2018-08-24T19:41:25.134Z,45.30
2018-08-24T19:43:59.633Z,45.30
2018-08-24T19:46:33.955Z,45.40
2018-08-24T19:49:14.133Z,45.20
2018-08-24T19:51:48.434Z,45.50
2018-08-24T19:54:22.809Z,45.50
2018-08-24T19:57:01.264Z,45.30
2018-08-24T19:59:35.656Z,45.90
2018-08-24T20:02:10.006Z,45.70
2018-08-24T20:04:44.492Z,45.70
2018-08-24T20:07:24.238Z,45.80
2018-08-24T20:10:05.353Z,45.70
2018-08-24T20:12:39.562Z,45.90
2018-08-24T20:15:19.442Z,46.00
2018-08-24T20:17:53.792Z,46.00
2018-08-24T20:20:28.143Z,46.10
2018-08-24T20:23:02.405Z,46.20
2018-08-24T20:25:36.825Z,46.30
2018-08-24T20:28:11.220Z,46.30
2018-08-24T20:30:45.632Z,46.30
2018-08-24T20:33:20.015Z,46.40
2018-08-24T20:35:54.541Z,46.50
2018-08-24T20:38:28.922Z,46.50
2018-08-24T20:41:03.175Z,46.60
2018-08-24T20:43:37.384Z,46.70
2018-08-24T20:46:11.742Z,46.70
2018-08-24T20:48:46.063Z,46.70
2018-08-24T20:51:20.332Z,46.80
2018-08-24T20:53:54.657Z,46.80
2018-08-24T20:56:28.993Z,46.90
2018-08-24T20:59:03.519Z,47.00
2018-08-24T21:01:37.745Z,47.00
2018-08-24T21:04:12.227Z,47.10
2018-08-24T21:06:46.484Z,47.20
2018-08-24T21:09:20.866Z,46.60
2018-08-24T21:11:55.172Z,47.30
2018-08-24T21:14:29.560Z,47.40
2018-08-24T21:17:04.077Z,47.40
2018-08-24T21:19:38.452Z,47.50
2018-08-24T21:22:12.901Z,48.00
2018-08-24T21:24:47.221Z,47.50
2018-08-24T21:27:21.570Z,47.60
2018-08-24T21:29:56.026Z,47.70
2018-08-24T21:32:30.290Z,47.70
2018-08-24T21:35:04.677Z,47.70
2018-08-24T21:37:39.071Z,47.80
2018-08-24T21:40:13.409Z,47.80
2018-08-24T21:42:47.707Z,47.90
2018-08-24T21:45:21.978Z,47.90
2018-08-24T21:47:57.205Z,47.90
2018-08-24T21:50:31.605Z,47.90
2018-08-24T21:53:06.128Z,48.00
2018-08-24T21:55:40.640Z,48.10
2018-08-24T21:58:15.079Z,48.00
2018-08-24T22:00:49.344Z,48.20
2018-08-24T22:03:23.701Z,48.10
2018-08-24T22:05:58.352Z,48.30
2018-08-24T22:08:32.764Z,48.10
2018-08-24T22:11:07.128Z,48.60
2018-08-24T22:13:41.466Z,48.60
2018-08-24T22:16:15.804Z,48.60
2018-08-24T22:18:50.217Z,48.60
2018-08-24T22:21:24.526Z,48.60
2018-08-24T22:23:58.935Z,48.60
2018-08-24T22:26:33.350Z,48.60
2018-08-24T22:29:07.648Z,48.70
2018-08-24T22:31:41.924Z,48.60
2018-08-24T22:34:16.220Z,48.60
2018-08-24T22:36:50.484Z,48.80
2018-08-24T22:39:24.815Z,48.70
2018-08-24T22:41:59.111Z,48.80
2018-08-24T22:44:33.898Z,48.80
2018-08-24T22:47:08.157Z,49.00
2018-08-24T22:49:42.433Z,49.00
2018-08-24T22:52:16.914Z,49.00
2018-08-24T22:54:51.287Z,49.00
2018-08-24T22:57:25.664Z,49.00
2018-08-24T23:00:00.045Z,49.20
2018-08-24T23:02:34.296Z,50.10
2018-08-24T23:05:08.734Z,47.30
2018-08-24T23:07:43.053Z,48.30
2018-08-24T23:10:17.312Z,50.40
2018-08-24T23:12:51.569Z,50.60
2018-08-24T23:15:25.919Z,51.00
2018-08-24T23:18:01.119Z,51.00
2018-08-24T23:20:35.488Z,50.90
2018-08-24T23:23:09.801Z,50.60
2018-08-24T23:25:44.196Z,51.10
2018-08-24T23:28:18.564Z,51.10
2018-08-24T23:30:52.907Z,51.10
2018-08-24T23:33:28.205Z,49.50
2018-08-24T23:36:02.520Z,50.10
2018-08-24T23:38:36.862Z,51.40
2018-08-24T23:41:11.232Z,51.40
2018-08-24T23:43:45.541Z,51.80
2018-08-24T23:46:19.895Z,51.60
2018-08-24T23:48:54.218Z,51.40
2018-08-24T23:51:28.470Z,51.60
2018-08-24T23:54:02.856Z,51.60
2018-08-24T23:56:37.231Z,51.20
2018-08-24T23:59:11.839Z,50.80
